createdAt,value
2023-01-21T00:02:22.989Z,96405.53
2023-01-21T00:04:49.886Z,96410.31
2023-01-21T00:07:17.167Z,96411.91
2023-01-21T00:09:43.983Z,96411.53
2023-01-21T00:12:11.280Z,96406.72
2023-01-21T00:14:37.950Z,96411.47
2023-01-21T00:17:09.274Z,96413.41
2023-01-21T00:19:37.793Z,96401.09
2023-01-21T00:22:04.710Z,96392.03
2023-01-21T00:24:32.006Z,96403.78
2023-01-21T00:26:58.589Z,96401.91
2023-01-21T00:29:29.131Z,96406.78
2023-01-21T00:31:55.736Z,96397.81
2023-01-21T00:34:22.631Z,96406.13
2023-01-21T00:36:49.173Z,96404.09
2023-01-21T00:39:18.842Z,96402.22
2023-01-21T00:41:45.771Z,96408.94
2023-01-21T00:44:14.628Z,96395.69
2023-01-21T00:46:47.983Z,96396.28
2023-01-21T00:49:34.326Z,96398.78
2023-01-21T01:04:19.374Z,96386.16
2023-01-21T01:06:46.009Z,96382.75
2023-01-21T01:09:12.617Z,96376.56
2023-01-21T01:11:41.682Z,96363.22
2023-01-21T01:14:08.179Z,96372.09
2023-01-21T01:16:42.383Z,96371.09
2023-01-21T01:22:09.651Z,96371.19
2023-01-21T01:24:36.423Z,96372.09
2023-01-21T01:27:03.784Z,96374.97
2023-01-21T01:29:30.300Z,96375.59
2023-01-21T01:31:59.345Z,96371.63
2023-01-21T01:34:26.244Z,96370.97
2023-01-21T01:36:53.587Z,96374.53
2023-01-21T01:45:47.061Z,96379.94
2023-01-21T01:48:16.552Z,96380.59
2023-01-21T01:50:43.398Z,96367.69
2023-01-21T01:53:10.773Z,96384.56
2023-01-21T01:55:37.626Z,96378.22
2023-01-21T01:58:04.409Z,96377.38
2023-01-21T02:00:30.991Z,96381.75
2023-01-21T02:02:57.692Z,96378.81
2023-01-21T02:05:24.451Z,96371.31
2023-01-21T02:07:51.081Z,96370.31
2023-01-21T02:10:18.163Z,96369.28
2023-01-21T02:12:45.207Z,96373.34
2023-01-21T02:15:12.634Z,96370.63
2023-01-21T02:17:39.196Z,96362.69
2023-01-21T02:20:05.972Z,96360.78
2023-01-21T02:22:34.998Z,96362.66
2023-01-21T02:25:04.473Z,96363.41
2023-01-21T02:27:33.677Z,96370.19
2023-01-21T02:30:03.795Z,96364.22
2023-01-21T02:32:30.471Z,96363.22
2023-01-21T02:34:57.390Z,96368.50
2023-01-21T02:37:25.749Z,96366.31
2023-01-21T02:39:53.450Z,96364.91
2023-01-21T02:42:20.641Z,96357.63
2023-01-21T02:44:54.675Z,96356.22
2023-01-21T02:47:21.948Z,96358.13
2023-01-21T02:49:48.886Z,96357.69
2023-01-21T02:52:16.150Z,96351.53
2023-01-21T02:54:44.448Z,96357.56
2023-01-21T02:57:11.825Z,96352.56
2023-01-21T02:59:38.770Z,96356.66
2023-01-21T03:02:10.853Z,96343.50
2023-01-21T03:04:40.021Z,96351.09
2023-01-21T03:07:06.871Z,96353.38
2023-01-21T03:09:33.664Z,96346.97
2023-01-21T03:12:01.293Z,96346.84
2023-01-21T03:14:28.184Z,96344.94
2023-01-21T03:16:54.973Z,96348.97
2023-01-21T03:19:21.843Z,96352.63
2023-01-21T03:21:48.406Z,96344.53
2023-01-21T03:24:15.154Z,96340.19
2023-01-21T03:26:42.695Z,96339.56
2023-01-21T03:29:09.331Z,96346.44
2023-01-21T03:31:38.479Z,96343.59
2023-01-21T03:34:05.463Z,96340.34
2023-01-21T03:36:32.118Z,96337.44
2023-01-21T03:38:59.470Z,96340.78
2023-01-21T03:41:26.344Z,96349.47
2023-01-21T03:43:56.697Z,96339.69
2023-01-21T03:46:24.096Z,96336.56
2023-01-21T03:48:51.561Z,96336.94
2023-01-21T03:51:18.296Z,96336.34
2023-01-21T03:53:45.389Z,96336.19
2023-01-21T03:56:19.469Z,96326.63
2023-01-21T03:58:46.847Z,96334.84
2023-01-21T04:01:13.649Z,96330.03
2023-01-21T04:03:41.917Z,96334.00
2023-01-21T04:06:08.695Z,96327.19
2023-01-21T04:08:37.614Z,96323.44
2023-01-21T04:11:04.345Z,96321.41
2023-01-21T04:13:31.626Z,96326.41
2023-01-21T04:15:58.479Z,96331.94
2023-01-21T04:18:25.065Z,96327.16
2023-01-21T04:20:52.462Z,96330.63
2023-01-21T04:23:19.035Z,96334.84
2023-01-21T04:25:46.678Z,96330.00
2023-01-21T04:28:13.416Z,96324.28
2023-01-21T04:30:41.016Z,96328.91
2023-01-21T04:33:07.869Z,96321.06
2023-01-21T04:35:34.766Z,96327.19
2023-01-21T04:38:02.537Z,96328.00
2023-01-21T04:40:29.682Z,96331.22
2023-01-21T04:42:57.037Z,96331.06
2023-01-21T04:45:23.799Z,96327.19
2023-01-21T04:47:52.903Z,96318.63
2023-01-21T04:50:20.439Z,96332.66
2023-01-21T04:52:49.420Z,96331.50
2023-01-21T04:55:17.032Z,96332.16
2023-01-21T04:57:43.528Z,96318.03
2023-01-21T05:00:10.539Z,96325.19
2023-01-21T05:02:37.467Z,96323.41
2023-01-21T05:05:04.086Z,96319.41
2023-01-21T05:07:31.088Z,96326.97
2023-01-21T05:10:05.069Z,96325.72
2023-01-21T05:12:31.958Z,96317.41
2023-01-21T05:14:59.354Z,96324.59
2023-01-21T05:17:26.258Z,96328.28
2023-01-21T05:19:53.111Z,96324.84
2023-01-21T05:22:19.935Z,96340.06
2023-01-21T05:24:46.745Z,96329.66
2023-01-21T05:27:13.446Z,96327.66
2023-01-21T05:29:40.853Z,96328.00
2023-01-21T05:32:07.907Z,96319.06
2023-01-21T05:34:34.975Z,96323.25
2023-01-21T05:37:02.256Z,96325.44
2023-01-21T05:39:28.840Z,96316.31
2023-01-21T05:41:55.768Z,96317.16
2023-01-21T05:44:22.584Z,96318.66
2023-01-21T05:46:50.553Z,96317.28
2023-01-21T05:49:17.468Z,96318.72
2023-01-21T05:51:50.075Z,96319.19
2023-01-21T05:54:17.012Z,96318.31
2023-01-21T05:56:43.887Z,96323.88
2023-01-21T05:59:10.643Z,96315.25
2023-01-21T06:01:37.522Z,96312.66
2023-01-21T06:04:04.167Z,96318.38
2023-01-21T06:06:32.460Z,96312.41
2023-01-21T06:08:59.180Z,96323.59
2023-01-21T06:11:26.789Z,96316.88
2023-01-21T06:13:56.648Z,96317.97
2023-01-21T06:16:23.361Z,96318.47
2023-01-21T06:18:52.419Z,96323.66
2023-01-21T06:21:21.382Z,96320.22
2023-01-21T06:23:54.634Z,96321.25
2023-01-21T06:26:23.068Z,96326.44
2023-01-21T06:28:51.150Z,96327.13
2023-01-21T06:31:17.747Z,96334.69
2023-01-21T06:33:44.485Z,96327.06
2023-01-21T06:36:13.658Z,96319.53
2023-01-21T06:38:40.132Z,96313.16
2023-01-21T06:41:09.968Z,96321.13
2023-01-21T06:43:38.971Z,96321.91
2023-01-21T06:46:06.364Z,96319.56
2023-01-21T06:48:33.372Z,96317.00
2023-01-21T06:51:02.651Z,96321.03
2023-01-21T06:53:29.282Z,96323.31
2023-01-21T06:55:56.147Z,96320.25
2023-01-21T06:58:23.615Z,96324.38
2023-01-21T07:00:50.814Z,96327.22
2023-01-21T07:03:17.428Z,96326.44
2023-01-21T07:05:45.625Z,96331.34
2023-01-21T07:08:17.927Z,96335.03
2023-01-21T07:10:47.683Z,96332.50
2023-01-21T07:13:14.688Z,96334.22
2023-01-21T07:15:41.800Z,96340.25
2023-01-21T07:18:10.479Z,96342.09
2023-01-21T07:20:39.845Z,96336.19
2023-01-21T07:23:07.343Z,96337.06
2023-01-21T07:25:34.269Z,96337.13
2023-01-21T07:28:00.816Z,96342.13
2023-01-21T07:30:32.095Z,96334.91
2023-01-21T07:32:58.972Z,96336.38
2023-01-21T07:35:26.379Z,96340.72
2023-01-21T07:37:53.189Z,96331.56
2023-01-21T07:40:22.229Z,96342.47
2023-01-21T07:42:49.029Z,96350.09
2023-01-21T07:45:15.786Z,96344.38
2023-01-21T07:47:43.301Z,96336.19
2023-01-21T07:50:10.192Z,96331.34
2023-01-21T07:52:37.774Z,96335.34
2023-01-21T07:55:05.162Z,96341.41
2023-01-21T07:57:31.708Z,96344.19
2023-01-21T07:59:58.740Z,96348.31
2023-01-21T08:02:25.526Z,96338.09
2023-01-21T08:04:52.346Z,96335.78
2023-01-21T08:07:19.261Z,96346.97
2023-01-21T08:09:48.334Z,96346.75
2023-01-21T08:12:18.624Z,96344.09
2023-01-21T08:14:45.540Z,96344.88
2023-01-21T08:17:12.183Z,96339.75
2023-01-21T08:19:38.899Z,96345.00
2023-01-21T08:22:05.966Z,96351.97
2023-01-21T08:24:34.598Z,96347.19
2023-01-21T08:27:01.930Z,96346.72
2023-01-21T08:29:28.505Z,96343.66
2023-01-21T08:31:56.151Z,96347.34
2023-01-21T08:34:23.255Z,96349.72
2023-01-21T08:36:50.566Z,96338.00
2023-01-21T08:39:17.366Z,96340.13
2023-01-21T08:41:43.981Z,96334.78
2023-01-21T08:44:12.976Z,96330.09
2023-01-21T08:46:39.862Z,96342.31
2023-01-21T08:49:08.804Z,96332.97
2023-01-21T08:51:35.616Z,96333.75
2023-01-21T08:54:04.733Z,96344.81
2023-01-21T08:56:31.329Z,96341.13
2023-01-21T08:58:57.969Z,96331.66
2023-01-21T09:01:25.636Z,96331.06
2023-01-21T09:03:53.399Z,96319.00
2023-01-21T09:06:20.051Z,96322.53
2023-01-21T09:08:50.793Z,96331.06
2023-01-21T09:11:19.518Z,96327.19
2023-01-21T09:13:47.217Z,96319.31
2023-01-21T09:16:13.846Z,96318.69
2023-01-21T09:18:40.766Z,96316.31
2023-01-21T09:21:07.290Z,96316.41
2023-01-21T09:23:36.545Z,96318.03
2023-01-21T09:26:04.047Z,96321.91
2023-01-21T09:28:33.970Z,96315.56
2023-01-21T09:31:01.001Z,96319.53
2023-01-21T09:33:31.164Z,96318.88
2023-01-21T09:35:58.484Z,96322.28
2023-01-21T09:38:28.333Z,96327.72
2023-01-21T09:40:54.939Z,96319.66
2023-01-21T09:43:22.755Z,96335.88
2023-01-21T09:45:52.145Z,96317.81
2023-01-21T09:48:18.916Z,96328.88
2023-01-21T09:50:47.886Z,96338.84
2023-01-21T09:53:14.638Z,96326.50
2023-01-21T09:55:45.074Z,96324.16
2023-01-21T09:58:11.954Z,96321.81
2023-01-21T10:00:38.563Z,96325.00
2023-01-21T10:03:12.757Z,96308.22
2023-01-21T10:05:41.471Z,96319.22
2023-01-21T10:08:09.797Z,96302.25
2023-01-21T10:10:37.598Z,96309.84
2023-01-21T10:13:04.291Z,96300.28
2023-01-21T10:15:31.226Z,96300.22
2023-01-21T10:17:59.660Z,96304.03
2023-01-21T10:20:26.453Z,96303.81
2023-01-21T10:22:54.217Z,96318.88
2023-01-21T10:25:23.009Z,96308.84
2023-01-21T10:27:49.621Z,96303.63
2023-01-21T10:30:16.335Z,96297.41
2023-01-21T10:32:44.908Z,96299.22
2023-01-21T10:35:11.652Z,96298.28
2023-01-21T10:37:40.927Z,96293.03
2023-01-21T10:40:09.596Z,96309.16
2023-01-21T10:42:36.319Z,96277.31
2023-01-21T10:45:03.112Z,96280.09
2023-01-21T10:47:30.434Z,96290.97
2023-01-21T10:49:57.048Z,96288.16
2023-01-21T10:52:23.720Z,96286.09
2023-01-21T10:54:50.591Z,96293.72
2023-01-21T10:57:17.592Z,96267.84
2023-01-21T10:59:44.857Z,96271.75
2023-01-21T11:02:11.672Z,96283.56
2023-01-21T11:04:38.722Z,96279.50
2023-01-21T11:07:05.588Z,96266.91
2023-01-21T11:09:32.640Z,96258.31
2023-01-21T11:11:59.540Z,96275.94
2023-01-21T11:14:28.347Z,96257.75
2023-01-21T11:16:55.322Z,96267.31
2023-01-21T11:19:22.847Z,96257.69
2023-01-21T11:21:53.606Z,96261.97
2023-01-21T11:24:20.549Z,96266.13
2023-01-21T11:26:47.293Z,96261.41
2023-01-21T11:29:14.175Z,96247.03
2023-01-21T11:34:21.457Z,96255.16
2023-01-21T11:36:55.858Z,96247.59
2023-01-21T11:39:24.879Z,96245.63
2023-01-21T11:41:51.773Z,96252.59
2023-01-21T11:44:18.340Z,96260.22
2023-01-21T11:46:45.624Z,96253.56
2023-01-21T11:49:16.845Z,96264.41
2023-01-21T11:51:43.384Z,96255.88
2023-01-21T11:54:11.154Z,96243.53
2023-01-21T11:56:38.327Z,96238.72
2023-01-21T11:59:06.998Z,96232.56
2023-01-21T12:01:33.765Z,96239.34
2023-01-21T12:04:02.320Z,96235.16
2023-01-21T12:06:29.205Z,96240.28
2023-01-21T12:08:58.134Z,96265.63
2023-01-21T12:11:24.839Z,96224.13
2023-01-21T12:13:51.811Z,96220.09
2023-01-21T12:16:20.290Z,96212.44
2023-01-21T12:18:50.898Z,96241.13
2023-01-21T12:21:19.728Z,96216.78
2023-01-21T12:23:46.821Z,96211.06
2023-01-21T12:26:13.431Z,96209.75
2023-01-21T12:28:40.665Z,96203.19
2023-01-21T12:31:08.648Z,96183.09
2023-01-21T12:33:38.801Z,96209.97
2023-01-21T12:36:05.377Z,96188.44
2023-01-21T12:38:31.967Z,96199.00
2023-01-21T12:40:59.116Z,96182.41
2023-01-21T12:43:25.730Z,96202.00
2023-01-21T12:45:52.643Z,96199.00
2023-01-21T12:48:19.121Z,96194.00
2023-01-21T12:50:46.391Z,96201.34
2023-01-21T12:53:12.989Z,96206.72
2023-01-21T12:55:39.703Z,96187.25
2023-01-21T12:58:11.795Z,96213.63
2023-01-21T13:00:38.464Z,96217.53
2023-01-21T13:03:05.331Z,96235.72
2023-01-21T13:05:32.249Z,96214.50
2023-01-21T13:07:59.079Z,96216.34
2023-01-21T13:10:26.830Z,96208.72
2023-01-21T13:13:02.217Z,96222.44
2023-01-21T13:18:22.715Z,96211.16
2023-01-21T13:20:49.675Z,96218.47
2023-01-21T13:23:16.524Z,96223.19
2023-01-21T13:25:43.152Z,96222.84
2023-01-21T13:28:22.747Z,96240.06
2023-01-21T13:34:02.995Z,96229.63
2023-01-21T13:36:30.314Z,96231.72
2023-01-21T13:38:56.963Z,96240.13
2023-01-21T13:41:26.762Z,96222.03
2023-01-21T13:43:54.419Z,96218.69
2023-01-21T13:46:23.499Z,96246.81
2023-01-21T13:48:52.597Z,96224.03
2023-01-21T13:51:19.285Z,96233.28
2023-01-21T13:53:45.945Z,96233.97
2023-01-21T13:56:15.085Z,96231.38
2023-01-21T13:58:44.123Z,96222.50
2023-01-21T14:01:13.172Z,96241.63
2023-01-21T14:03:40.206Z,96231.75
2023-01-21T14:06:06.884Z,96237.13
2023-01-21T14:08:35.964Z,96243.22
2023-01-21T14:11:02.820Z,96250.25
2023-01-21T14:13:29.605Z,96257.91
2023-01-21T14:15:56.489Z,96255.06
2023-01-21T14:18:24.235Z,96267.34
2023-01-21T14:20:51.017Z,96260.50
2023-01-21T14:23:17.935Z,96269.09
2023-01-21T14:25:44.749Z,96250.91
2023-01-21T14:28:12.031Z,96258.16
2023-01-21T14:30:39.332Z,96278.00
2023-01-21T14:33:05.886Z,96258.59
2023-01-21T14:35:34.898Z,96280.19
2023-01-21T14:38:01.746Z,96279.19
2023-01-21T14:40:28.447Z,96280.44
2023-01-21T14:42:57.385Z,96295.34
2023-01-21T14:45:24.181Z,96274.28
2023-01-21T14:47:51.051Z,96283.97
2023-01-21T14:50:18.573Z,96282.53
2023-01-21T14:55:30.292Z,96306.44
2023-01-21T14:57:57.246Z,96297.94
2023-01-21T15:00:24.538Z,96322.72
2023-01-21T15:02:51.264Z,96303.13
2023-01-21T15:05:18.514Z,96300.78
2023-01-21T15:07:45.562Z,96308.28
2023-01-21T15:12:40.817Z,96296.75
2023-01-21T15:15:07.679Z,96342.81
2023-01-21T15:17:37.936Z,96306.25
2023-01-21T15:20:06.757Z,96356.91
2023-01-21T15:22:34.159Z,96327.84
2023-01-21T15:25:01.876Z,96337.00
2023-01-21T15:27:30.872Z,96347.66
2023-01-21T15:30:00.417Z,96335.63
2023-01-21T15:32:29.385Z,96356.09
2023-01-21T15:34:56.202Z,96336.03
2023-01-21T15:37:22.742Z,96337.75
2023-01-21T15:39:49.820Z,96354.84
2023-01-21T15:42:19.719Z,96361.06
2023-01-21T15:44:49.625Z,96356.31
2023-01-21T15:47:17.484Z,96349.16
2023-01-21T15:49:46.005Z,96358.56
2023-01-21T15:52:12.995Z,96372.66
2023-01-21T15:54:40.392Z,96369.25
2023-01-21T15:57:07.450Z,96370.63
2023-01-21T15:59:34.013Z,96380.44
2023-01-21T16:02:00.980Z,96384.94
2023-01-21T16:04:29.625Z,96386.44
2023-01-21T16:06:56.512Z,96383.22
2023-01-21T16:09:23.974Z,96389.00
2023-01-21T16:11:53.412Z,96381.13
2023-01-21T16:14:22.502Z,96379.50
2023-01-21T16:16:49.354Z,96394.81
2023-01-21T16:19:18.565Z,96387.19
2023-01-21T16:21:49.791Z,96390.94
2023-01-21T16:24:16.410Z,96393.38
2023-01-21T16:26:42.993Z,96395.47
2023-01-21T16:29:11.677Z,96392.00
2023-01-21T16:31:43.784Z,96402.59
2023-01-21T16:34:16.043Z,96400.22
2023-01-21T16:36:42.700Z,96394.41
2023-01-21T16:39:09.443Z,96432.41
2023-01-21T16:41:37.046Z,96396.88
2023-01-21T16:44:03.536Z,96404.31
2023-01-21T16:46:30.302Z,96412.53
2023-01-21T16:48:57.005Z,96412.47
2023-01-21T16:51:27.870Z,96412.28
2023-01-21T16:53:54.638Z,96411.66
2023-01-21T16:56:22.878Z,96415.34
2023-01-21T16:58:49.811Z,96414.16
2023-01-21T17:01:17.167Z,96422.84
2023-01-21T17:03:43.870Z,96419.72
2023-01-21T17:06:13.247Z,96418.78
2023-01-21T17:08:40.090Z,96428.84
2023-01-21T17:11:11.507Z,96409.03
2023-01-21T17:13:40.445Z,96423.19
2023-01-21T17:16:07.255Z,96415.81
2023-01-21T17:18:35.438Z,96409.09
2023-01-21T17:21:02.375Z,96432.34
2023-01-21T17:23:29.053Z,96429.97
2023-01-21T17:25:56.369Z,96436.22
2023-01-21T17:28:24.035Z,96435.53
2023-01-21T17:30:50.987Z,96437.25
2023-01-21T17:33:17.865Z,96443.09
2023-01-21T17:35:44.333Z,96444.16
2023-01-21T17:38:11.158Z,96450.19
2023-01-21T17:40:38.077Z,96433.44
2023-01-21T17:43:04.686Z,96441.25
2023-01-21T17:45:31.522Z,96429.97
2023-01-21T17:48:09.565Z,96431.91
2023-01-21T17:50:38.314Z,96436.00
2023-01-21T17:53:07.288Z,96457.50
2023-01-21T17:55:34.449Z,96455.03
2023-01-21T17:58:03.648Z,96443.63
2023-01-21T18:00:30.214Z,96449.88
2023-01-21T18:02:58.328Z,96443.75
2023-01-21T18:05:25.133Z,96448.56
2023-01-21T18:07:52.799Z,96441.03
2023-01-21T18:10:21.927Z,96455.25
2023-01-21T18:12:48.545Z,96454.94
2023-01-21T18:15:15.496Z,96446.00
2023-01-21T18:17:42.808Z,96467.63
2023-01-21T18:20:09.322Z,96464.09
2023-01-21T18:22:38.498Z,96468.16
2023-01-21T18:25:04.955Z,96472.69
2023-01-21T18:27:32.435Z,96461.63
2023-01-21T18:29:59.255Z,96459.44
2023-01-21T18:32:32.002Z,96466.00
2023-01-21T18:34:59.107Z,96467.41
2023-01-21T18:37:26.591Z,96472.34
2023-01-21T18:39:53.837Z,96470.22
2023-01-21T18:42:20.593Z,96472.25
2023-01-21T18:44:47.143Z,96466.78
2023-01-21T18:47:14.036Z,96462.88
2023-01-21T18:49:40.764Z,96466.63
2023-01-21T18:52:07.489Z,96468.75
2023-01-21T18:57:23.843Z,96474.00
2023-01-21T18:59:50.581Z,96462.19
2023-01-21T19:02:18.173Z,96454.94
2023-01-21T19:07:39.273Z,96475.28
2023-01-21T19:10:09.308Z,96470.13
2023-01-21T19:12:37.050Z,96468.31
2023-01-21T19:15:05.111Z,96475.72
2023-01-21T19:17:31.873Z,96495.09
2023-01-21T19:20:01.020Z,96480.09
2023-01-21T19:22:27.577Z,96463.22
2023-01-21T19:24:54.096Z,96488.59
2023-01-21T19:37:04.485Z,96483.00
2023-01-21T19:39:33.429Z,96483.09
2023-01-21T19:42:08.031Z,96477.63
2023-01-21T20:10:19.666Z,96492.00
2023-01-21T20:12:47.550Z,96480.22
2023-01-21T20:21:20.512Z,96506.78
2023-01-21T20:23:48.043Z,96489.00
2023-01-21T20:26:15.361Z,96491.94
2023-01-21T20:28:43.200Z,96484.41
2023-01-21T20:31:10.204Z,96489.47
2023-01-21T20:33:36.987Z,96503.78
2023-01-21T20:38:55.802Z,96472.88
2023-01-21T20:41:22.680Z,96481.19
2023-01-21T20:43:49.669Z,96486.69
2023-01-21T20:46:16.524Z,96491.50
2023-01-21T20:48:48.299Z,96491.41
2023-01-21T20:51:16.917Z,96492.88
2023-01-21T20:53:43.588Z,96491.66
2023-01-21T20:56:11.459Z,96489.44
2023-01-21T20:58:38.896Z,96487.59
2023-01-21T21:01:05.904Z,96505.59
2023-01-21T21:03:32.709Z,96501.38
2023-01-21T21:06:02.157Z,96492.94
2023-01-21T21:11:32.913Z,96494.97
2023-01-21T21:13:59.661Z,96497.09
2023-01-21T21:16:26.428Z,96490.44
2023-01-21T21:18:53.385Z,96507.31
2023-01-21T21:21:22.489Z,96507.69
2023-01-21T21:23:50.343Z,96490.25
2023-01-21T21:26:19.383Z,96522.66
2023-01-21T21:28:48.797Z,96509.34
2023-01-21T21:31:34.571Z,96514.88
2023-01-21T21:34:16.019Z,96507.66
2023-01-21T21:36:42.543Z,96499.31
2023-01-21T21:39:11.990Z,96510.38
2023-01-21T21:41:51.515Z,96509.59
2023-01-21T21:44:21.824Z,96513.81
2023-01-21T21:49:49.943Z,96508.97
2023-01-21T21:52:30.804Z,96514.09
2023-01-21T21:54:58.838Z,96512.06
2023-01-21T21:57:39.412Z,96508.75
2023-01-21T22:05:47.064Z,96510.44
2023-01-21T22:08:15.930Z,96505.97
2023-01-21T22:10:42.770Z,96503.69
2023-01-21T22:13:18.843Z,96518.59
2023-01-21T22:19:05.632Z,96504.88
2023-01-21T22:21:40.869Z,96513.91
2023-01-21T22:24:10.284Z,96510.09
2023-01-21T22:26:46.589Z,96500.34
2023-01-21T22:29:20.290Z,96498.59
2023-01-21T22:34:57.050Z,96515.47
2023-01-21T22:37:30.791Z,96509.53
2023-01-21T22:39:57.352Z,96514.56
2023-01-21T22:42:35.928Z,96514.66
2023-01-21T22:51:16.687Z,96509.66
2023-01-21T22:53:50.215Z,96498.09
2023-01-21T22:56:16.685Z,96514.03
2023-01-21T23:07:09.916Z,96499.41
2023-01-21T23:09:37.332Z,96504.00
2023-01-21T23:12:06.412Z,96505.44
2023-01-21T23:14:33.250Z,96522.25
2023-01-21T23:17:12.544Z,96501.69
2023-01-21T23:19:47.502Z,96502.56
2023-01-21T23:22:30.275Z,96512.78
2023-01-21T23:24:57.285Z,96553.22
2023-01-21T23:27:23.907Z,96512.59
2023-01-21T23:35:18.304Z,96513.25
2023-01-21T23:37:45.144Z,96517.31
2023-01-21T23:40:11.809Z,96509.16
2023-01-21T23:42:38.695Z,96515.16
2023-01-21T23:45:05.420Z,96504.41
2023-01-21T23:47:32.247Z,96495.59
2023-01-21T23:50:06.024Z,96505.50
2023-01-21T23:52:32.873Z,96515.22
2023-01-21T23:54:59.824Z,96499.59
2023-01-21T23:57:28.765Z,96499.38
2023-01-21T23:59:55.375Z,96511.53
